Buoy 13519

sailwx.info

Track history (hours):
 
Tides and Currents Weather Stations Pressure Air Temp Water Temp Dewpoint Dewpoint Depression Visibility Wind Speed Wind Dir Waves Ship Positions

Drifting buoy 13519

Last reported at 2015-Jul-28 00:00 UTC. Time now 2015-Jul-28 03:30 UTC.
Position N 19°49' W 038°24'.

Barometer 1018.5 mb
Water temperature 25.5 ° C

Date/timePositionNaut miles runAvg speedWind from/ knotsBaromVisibWave heightAir tempDewpointWater temp
2015-Jul-28 00:00N 19°49' W 038°24'1 1.4 1018.5 25.5
2015-Jul-27 23:00N 19°49' W 038°25'1 1.2 1018.1 25.5
2015-Jul-27 22:00N 19°48' W 038°24'3 0.2 1017.6 25.6
2015-Jul-27 08:00N 19°46' W 038°22'0 0.1 1017.2 25.5
2015-Jul-27 04:00N 19°45' W 038°22'2 0.5 1017.4 25.5
2015-Jul-27 00:00N 19°44' W 038°22'2 1.8 1018.7 25.5
2015-Jul-26 23:00N 19°42' W 038°21'0 0.0 1018.2 25.5
2015-Jul-26 21:00N 19°42' W 038°21'3 0.7 1017.2 25.6
2015-Jul-26 17:00N 19°41' W 038°18'1 0.6 1017.2 25.6
2015-Jul-26 16:00N 19°41' W 038°18'1 0.8 1017.4 25.6
2015-Jul-26 15:00N 19°41' W 038°17'3 0.9 1017.8 25.6
2015-Jul-26 12:00N 19°39' W 038°15'0 0.0 1018.5 25.5
2015-Jul-26 11:00N 19°39' W 038°15'1 0.4 1018.4 25.5
2015-Jul-26 08:00N 19°39' W 038°14'2 2.1 1016.9 -0.1
2015-Jul-26 07:00N 19°39' W 038°16'2 1.8 1016.8 25.5
2015-Jul-26 06:00N 19°38' W 038°14'0 0.0 1017.0 25.5
2015-Jul-26 05:00N 19°38' W 038°14'1 0.9 1017.1 25.5
2015-Jul-26 04:00N 19°38' W 038°13'1 0.6 1017.5 25.5
2015-Jul-26 03:00N 19°38' W 038°14'2 0.4 1017.9 25.5
2015-Jul-25 22:00N 19°37' W 038°12'6 0.5 1017.5 25.5
2015-Jul-25 09:00N 19°31' W 038°09'2 0.8 1018.1 25.4
2015-Jul-25 07:00N 19°30' W 038°08'2 1.5 1017.5 25.4
2015-Jul-25 06:00N 19°30' W 038°06'5 2.4 1017.5 25.4
2015-Jul-25 04:00N 19°30' W 038°01'1 0.2 1017.8 25.4
2015-Jul-25 00:00N 19°29' W 038°02'1 1.4 1019.5 25.4
2015-Jul-24 23:00N 19°31' W 038°02'3 0.6 1019.2 25.4
2015-Jul-24 18:00N 19°29' W 037°60'1 0.3 1018.3 25.5
2015-Jul-24 15:00N 19°28' W 038°00'8 0.4 1019.4 25.5
2015-Jul-23 17:00N 19°24' W 037°53'2 1.6 1018.7 25.5
2015-Jul-23 16:00N 19°23' W 037°53'2 0.7 1019.1 25.5
2015-Jul-23 13:00N 19°23' W 037°51'0 0.0 1020.0 25.3
2015-Jul-23 12:00N 19°23' W 037°51'2 0.5 1020.1 25.3
2015-Jul-23 07:00N 19°22' W 037°48'2 0.3 1019.4 25.2
2015-Jul-22 23:00N 19°22' W 037°46'2 1.6 1019.4 25.3
2015-Jul-22 22:00N 19°22' W 037°44'1 0.1 1019.2 25.4
2015-Jul-22 17:00N 19°22' W 037°45'1 1.4 1018.2 25.4
2015-Jul-22 16:00N 19°21' W 037°44'2 0.3 1018.6 25.4
2015-Jul-22 09:00N 19°20' W 037°43'1 0.4 1018.4 25.1
2015-Jul-22 07:00N 19°19' W 037°42'4 0.6 1017.9 25.2
2015-Jul-22 01:00N 19°19' W 037°38'2 0.9 1019.2 25.2
2015-Jul-21 23:00N 19°19' W 037°36'1 0.3 1018.5 25.2
2015-Jul-21 20:00N 19°18' W 037°37'1 0.3 1017.2 25.3
2015-Jul-21 18:00N 19°18' W 037°36'3 1.3 1017.3 25.3
2015-Jul-21 16:00N 19°19' W 037°33'1 0.3 1018.2 25.2
2015-Jul-21 12:00N 19°18' W 037°32'0 0.0 1019.5 25.1
2015-Jul-21 11:00N 19°18' W 037°32'2 0.4 1019.2 25.0
2015-Jul-21 07:00N 19°18' W 037°31'1 0.4 1017.7 25.0
2015-Jul-21 05:00N 19°18' W 037°30'1 0.1 1018.0 25.0
2015-Jul-21 00:00N 19°18' W 037°30'2 1.7 1019.5 24.9
2015-Jul-20 23:00N 19°18' W 037°29'0 0.0 1019.1 24.9
2015-Jul-20 22:00N 19°18' W 037°29'0 0.0 1018.6 24.9
2015-Jul-20 20:00N 19°18' W 037°29'0 0.4 1017.9 25.0
2015-Jul-20 19:00N 19°18' W 037°29'0 0.1 1018.1 25.0
2015-Jul-20 16:00N 19°17' W 037°29'3 0.8 1018.5 25.0
2015-Jul-20 12:00N 19°18' W 037°26'0 0.0 1019.4 24.9
2015-Jul-20 11:00N 19°18' W 037°26'1 0.5 1019.4 24.9
2015-Jul-20 09:00N 19°19' W 037°26'0 0.0 1019.0 24.9
2015-Jul-20 08:00N 19°19' W 037°26'1 0.3 1018.5 24.9
2015-Jul-20 05:00N 19°20' W 037°25'1 0.3 1018.6 24.9
2015-Jul-20 00:00N 19°20' W 037°24'1 0.7 1019.8 25.0
2015-Jul-19 23:00N 19°21' W 037°24'3 0.3 1019.7 25.1
2015-Jul-19 11:00N 19°20' W 037°21'8 0.6 1019.2 24.9
2015-Jul-18 20:00N 19°22' W 037°12'0 0.0 1017.7 25.0
2015-Jul-18 19:00N 19°22' W 037°12'1 0.2 1017.6 25.0
2015-Jul-18 16:00N 19°22' W 037°12'2 0.5 1018.0 25.1
2015-Jul-18 13:00N 19°24' W 037°11'1 0.3 1019.1 25.0
2015-Jul-18 09:00N 19°24' W 037°10'0 0.0 1018.8 25.0
2015-Jul-18 08:00N 19°24' W 037°10'1 0.1 1018.4 25.0
2015-Jul-18 04:00N 19°24' W 037°09'   1018.5 25.0
Track history (hours):
 
Tides and Currents Weather Stations Pressure Air Temp Water Temp Dewpoint Dewpoint Depression Visibility Wind Speed Wind Dir Waves Ship Positions

Drifting buoy 13519

Last reported at 2015-Jul-28 00:00 UTC. Time now 2015-Jul-28 03:30 UTC.
Position N 19°49' W 038°24'.

Barometer 1018.5 mb
Water temperature 25.5 ° C

Date/timePositionNaut miles runAvg speedWind from/ knotsBaromVisibWave heightAir tempDewpointWater temp
2015-Jul-28 00:00N 19°49' W 038°24'1 1.4 1018.5 25.5
2015-Jul-27 23:00N 19°49' W 038°25'1 1.2 1018.1 25.5
2015-Jul-27 22:00N 19°48' W 038°24'3 0.2 1017.6 25.6
2015-Jul-27 08:00N 19°46' W 038°22'0 0.1 1017.2 25.5
2015-Jul-27 04:00N 19°45' W 038°22'2 0.5 1017.4 25.5
2015-Jul-27 00:00N 19°44' W 038°22'2 1.8 1018.7 25.5
2015-Jul-26 23:00N 19°42' W 038°21'0 0.0 1018.2 25.5
2015-Jul-26 21:00N 19°42' W 038°21'3 0.7 1017.2 25.6
2015-Jul-26 17:00N 19°41' W 038°18'1 0.6 1017.2 25.6
2015-Jul-26 16:00N 19°41' W 038°18'1 0.8 1017.4 25.6
2015-Jul-26 15:00N 19°41' W 038°17'3 0.9 1017.8 25.6
2015-Jul-26 12:00N 19°39' W 038°15'0 0.0 1018.5 25.5
2015-Jul-26 11:00N 19°39' W 038°15'1 0.4 1018.4 25.5
2015-Jul-26 08:00N 19°39' W 038°14'2 2.1 1016.9 -0.1
2015-Jul-26 07:00N 19°39' W 038°16'2 1.8 1016.8 25.5
2015-Jul-26 06:00N 19°38' W 038°14'0 0.0 1017.0 25.5
2015-Jul-26 05:00N 19°38' W 038°14'1 0.9 1017.1 25.5
2015-Jul-26 04:00N 19°38' W 038°13'1 0.6 1017.5 25.5
2015-Jul-26 03:00N 19°38' W 038°14'2 0.4 1017.9 25.5
2015-Jul-25 22:00N 19°37' W 038°12'6 0.5 1017.5 25.5
2015-Jul-25 09:00N 19°31' W 038°09'2 0.8 1018.1 25.4
2015-Jul-25 07:00N 19°30' W 038°08'2 1.5 1017.5 25.4
2015-Jul-25 06:00N 19°30' W 038°06'5 2.4 1017.5 25.4
2015-Jul-25 04:00N 19°30' W 038°01'1 0.2 1017.8 25.4
2015-Jul-25 00:00N 19°29' W 038°02'1 1.4 1019.5 25.4
2015-Jul-24 23:00N 19°31' W 038°02'3 0.6 1019.2 25.4
2015-Jul-24 18:00N 19°29' W 037°60'1 0.3 1018.3 25.5
2015-Jul-24 15:00N 19°28' W 038°00'8 0.4 1019.4 25.5
2015-Jul-23 17:00N 19°24' W 037°53'2 1.6 1018.7 25.5
2015-Jul-23 16:00N 19°23' W 037°53'2 0.7 1019.1 25.5
2015-Jul-23 13:00N 19°23' W 037°51'0 0.0 1020.0 25.3
2015-Jul-23 12:00N 19°23' W 037°51'2 0.5 1020.1 25.3
2015-Jul-23 07:00N 19°22' W 037°48'2 0.3 1019.4 25.2
2015-Jul-22 23:00N 19°22' W 037°46'2 1.6 1019.4 25.3
2015-Jul-22 22:00N 19°22' W 037°44'1 0.1 1019.2 25.4
2015-Jul-22 17:00N 19°22' W 037°45'1 1.4 1018.2 25.4
2015-Jul-22 16:00N 19°21' W 037°44'2 0.3 1018.6 25.4
2015-Jul-22 09:00N 19°20' W 037°43'1 0.4 1018.4 25.1
2015-Jul-22 07:00N 19°19' W 037°42'4 0.6 1017.9 25.2
2015-Jul-22 01:00N 19°19' W 037°38'2 0.9 1019.2 25.2
2015-Jul-21 23:00N 19°19' W 037°36'1 0.3 1018.5 25.2
2015-Jul-21 20:00N 19°18' W 037°37'1 0.3 1017.2 25.3
2015-Jul-21 18:00N 19°18' W 037°36'3 1.3 1017.3 25.3
2015-Jul-21 16:00N 19°19' W 037°33'1 0.3 1018.2 25.2
2015-Jul-21 12:00N 19°18' W 037°32'0 0.0 1019.5 25.1
2015-Jul-21 11:00N 19°18' W 037°32'2 0.4 1019.2 25.0
2015-Jul-21 07:00N 19°18' W 037°31'1 0.4 1017.7 25.0
2015-Jul-21 05:00N 19°18' W 037°30'1 0.1 1018.0 25.0
2015-Jul-21 00:00N 19°18' W 037°30'2 1.7 1019.5 24.9
2015-Jul-20 23:00N 19°18' W 037°29'0 0.0 1019.1 24.9
2015-Jul-20 22:00N 19°18' W 037°29'0 0.0 1018.6 24.9
2015-Jul-20 20:00N 19°18' W 037°29'0 0.4 1017.9 25.0
2015-Jul-20 19:00N 19°18' W 037°29'0 0.1 1018.1 25.0
2015-Jul-20 16:00N 19°17' W 037°29'3 0.8 1018.5 25.0
2015-Jul-20 12:00N 19°18' W 037°26'0 0.0 1019.4 24.9
2015-Jul-20 11:00N 19°18' W 037°26'1 0.5 1019.4 24.9
2015-Jul-20 09:00N 19°19' W 037°26'0 0.0 1019.0 24.9
2015-Jul-20 08:00N 19°19' W 037°26'1 0.3 1018.5 24.9
2015-Jul-20 05:00N 19°20' W 037°25'1 0.3 1018.6 24.9
2015-Jul-20 00:00N 19°20' W 037°24'1 0.7 1019.8 25.0
2015-Jul-19 23:00N 19°21' W 037°24'3 0.3 1019.7 25.1
2015-Jul-19 11:00N 19°20' W 037°21'8 0.6 1019.2 24.9
2015-Jul-18 20:00N 19°22' W 037°12'0 0.0 1017.7 25.0
2015-Jul-18 19:00N 19°22' W 037°12'1 0.2 1017.6 25.0
2015-Jul-18 16:00N 19°22' W 037°12'2 0.5 1018.0 25.1
2015-Jul-18 13:00N 19°24' W 037°11'1 0.3 1019.1 25.0
2015-Jul-18 09:00N 19°24' W 037°10'0 0.0 1018.8 25.0
2015-Jul-18 08:00N 19°24' W 037°10'1 0.1 1018.4 25.0
2015-Jul-18 04:00N 19°24' W 037°09'   1018.5 25.0

Dump ship's entire track history